sensor_id;sensor_type;location;lat;lon;timestamp;P1;durP1;ratioP1;P2;durP2;ratioP2
78612;SDS011;67933;51.060;3.638;2023-02-28T00:01:12;10.52;;;5.50;;
78612;SDS011;67933;51.060;3.638;2023-02-28T00:03:39;7.32;;;4.60;;
78612;SDS011;67933;51.060;3.638;2023-02-28T00:06:05;5.03;;;4.50;;
78612;SDS011;67933;51.060;3.638;2023-02-28T00:08:31;8.32;;;4.35;;
78612;SDS011;67933;51.060;3.638;2023-02-28T00:11:00;6.18;;;4.85;;
78612;SDS011;67933;51.060;3.638;2023-02-28T00:13:27;7.32;;;4.85;;
78612;SDS011;67933;51.060;3.638;2023-02-28T00:15:59;7.00;;;4.72;;
78612;SDS011;67933;51.060;3.638;2023-02-28T00:18:26;7.60;;;5.05;;
78612;SDS011;67933;51.060;3.638;2023-02-28T00:20:52;5.90;;;5.15;;
78612;SDS011;67933;51.060;3.638;2023-02-28T00:23:17;5.10;;;4.15;;
78612;SDS011;67933;51.060;3.638;2023-02-28T00:25:42;6.28;;;4.85;;
78612;SDS011;67933;51.060;3.638;2023-02-28T00:28:08;6.70;;;4.40;;
78612;SDS011;67933;51.060;3.638;2023-02-28T00:30:33;6.90;;;4.88;;
78612;SDS011;67933;51.060;3.638;2023-02-28T00:32:58;7.10;;;5.00;;
78612;SDS011;67933;51.060;3.638;2023-02-28T00:35:24;6.07;;;4.97;;
78612;SDS011;67933;51.060;3.638;2023-02-28T00:37:49;8.50;;;4.82;;
78612;SDS011;67933;51.060;3.638;2023-02-28T00:40:15;6.80;;;4.68;;
78612;SDS011;67933;51.060;3.638;2023-02-28T00:42:40;7.72;;;5.28;;
78612;SDS011;67933;51.060;3.638;2023-02-28T00:45:06;7.32;;;5.25;;
78612;SDS011;67933;51.060;3.638;2023-02-28T00:47:33;6.97;;;4.65;;
78612;SDS011;67933;51.060;3.638;2023-02-28T00:49:58;6.00;;;4.53;;
78612;SDS011;67933;51.060;3.638;2023-02-28T00:52:24;7.10;;;4.97;;
78612;SDS011;67933;51.060;3.638;2023-02-28T00:54:50;8.73;;;5.55;;
78612;SDS011;67933;51.060;3.638;2023-02-28T00:57:15;6.20;;;5.22;;
78612;SDS011;67933;51.060;3.638;2023-02-28T00:59:41;7.22;;;5.18;;
78612;SDS011;67933;51.060;3.638;2023-02-28T01:02:06;7.78;;;4.97;;
78612;SDS011;67933;51.060;3.638;2023-02-28T01:04:32;6.28;;;4.72;;
78612;SDS011;67933;51.060;3.638;2023-02-28T01:06:57;8.10;;;5.45;;
78612;SDS011;67933;51.060;3.638;2023-02-28T01:09:23;8.25;;;4.90;;
78612;SDS011;67933;51.060;3.638;2023-02-28T01:11:48;8.18;;;5.22;;
78612;SDS011;67933;51.060;3.638;2023-02-28T01:14:14;7.38;;;5.45;;
78612;SDS011;67933;51.060;3.638;2023-02-28T01:16:41;10.15;;;5.38;;
78612;SDS011;67933;51.060;3.638;2023-02-28T01:19:06;12.35;;;5.32;;
78612;SDS011;67933;51.060;3.638;2023-02-28T01:21:32;7.22;;;4.82;;
78612;SDS011;67933;51.060;3.638;2023-02-28T01:24:00;7.68;;;5.05;;
78612;SDS011;67933;51.060;3.638;2023-02-28T01:26:25;8.43;;;5.25;;
78612;SDS011;67933;51.060;3.638;2023-02-28T01:28:51;7.35;;;4.68;;
78612;SDS011;67933;51.060;3.638;2023-02-28T01:31:18;8.05;;;5.45;;
78612;SDS011;67933;51.060;3.638;2023-02-28T01:33:44;9.23;;;5.30;;
78612;SDS011;67933;51.060;3.638;2023-02-28T01:36:14;8.13;;;5.50;;
78612;SDS011;67933;51.060;3.638;2023-02-28T01:38:45;7.65;;;4.93;;
78612;SDS011;67933;51.060;3.638;2023-02-28T01:41:30;9.35;;;5.30;;
78612;SDS011;67933;51.060;3.638;2023-02-28T01:43:59;7.53;;;5.10;;
78612;SDS011;67933;51.060;3.638;2023-02-28T01:46:31;10.75;;;5.57;;
78612;SDS011;67933;51.060;3.638;2023-02-28T01:49:00;7.93;;;4.78;;
78612;SDS011;67933;51.060;3.638;2023-02-28T01:51:42;9.00;;;4.60;;
78612;SDS011;67933;51.060;3.638;2023-02-28T01:54:16;8.35;;;4.82;;
78612;SDS011;67933;51.060;3.638;2023-02-28T01:56:47;12.07;;;5.03;;
78612;SDS011;67933;51.060;3.638;2023-02-28T01:59:24;6.80;;;4.72;;
78612;SDS011;67933;51.060;3.638;2023-02-28T02:01:54;10.40;;;5.53;;
78612;SDS011;67933;51.060;3.638;2023-02-28T02:04:20;7.00;;;5.15;;
78612;SDS011;67933;51.060;3.638;2023-02-28T02:06:48;6.90;;;5.32;;
78612;SDS011;67933;51.060;3.638;2023-02-28T02:09:13;6.57;;;4.72;;
78612;SDS011;67933;51.060;3.638;2023-02-28T02:11:39;7.28;;;4.80;;
78612;SDS011;67933;51.060;3.638;2023-02-28T02:25:29;9.57;;;5.43;;
78612;SDS011;67933;51.060;3.638;2023-02-28T02:39:16;7.90;;;5.55;;
78612;SDS011;67933;51.060;3.638;2023-02-28T02:41:53;8.90;;;5.13;;
78612;SDS011;67933;51.060;3.638;2023-02-28T02:46:48;9.43;;;6.38;;
78612;SDS011;67933;51.060;3.638;2023-02-28T02:49:21;8.07;;;5.38;;
78612;SDS011;67933;51.060;3.638;2023-02-28T02:51:51;11.23;;;5.65;;
78612;SDS011;67933;51.060;3.638;2023-02-28T02:54:23;7.68;;;4.95;;
78612;SDS011;67933;51.060;3.638;2023-02-28T02:56:53;8.30;;;4.97;;
78612;SDS011;67933;51.060;3.638;2023-02-28T02:59:24;10.32;;;6.15;;
78612;SDS011;67933;51.060;3.638;2023-02-28T03:01:54;9.80;;;4.78;;
78612;SDS011;67933;51.060;3.638;2023-02-28T03:04:24;9.43;;;5.35;;
78612;SDS011;67933;51.060;3.638;2023-02-28T03:06:52;12.27;;;6.28;;
78612;SDS011;67933;51.060;3.638;2023-02-28T03:09:20;9.55;;;5.72;;
78612;SDS011;67933;51.060;3.638;2023-02-28T03:11:50;11.40;;;6.32;;
78612;SDS011;67933;51.060;3.638;2023-02-28T03:19:43;10.48;;;6.65;;
78612;SDS011;67933;51.060;3.638;2023-02-28T03:28:12;12.15;;;5.53;;
78612;SDS011;67933;51.060;3.638;2023-02-28T03:33:38;8.82;;;5.72;;
78612;SDS011;67933;51.060;3.638;2023-02-28T03:36:09;8.85;;;5.65;;
78612;SDS011;67933;51.060;3.638;2023-02-28T03:38:39;11.00;;;6.00;;
78612;SDS011;67933;51.060;3.638;2023-02-28T03:41:17;12.35;;;5.88;;
78612;SDS011;67933;51.060;3.638;2023-02-28T03:43:57;7.55;;;5.43;;
78612;SDS011;67933;51.060;3.638;2023-02-28T03:46:28;11.63;;;5.40;;
78612;SDS011;67933;51.060;3.638;2023-02-28T03:51:34;9.98;;;5.88;;
78612;SDS011;67933;51.060;3.638;2023-02-28T03:54:07;10.90;;;6.35;;
78612;SDS011;67933;51.060;3.638;2023-02-28T04:01:45;9.32;;;6.07;;
78612;SDS011;67933;51.060;3.638;2023-02-28T04:04:12;10.65;;;6.28;;
78612;SDS011;67933;51.060;3.638;2023-02-28T04:06:39;9.60;;;6.57;;
78612;SDS011;67933;51.060;3.638;2023-02-28T04:09:05;8.90;;;6.30;;
78612;SDS011;67933;51.060;3.638;2023-02-28T04:14:00;9.02;;;5.70;;
78612;SDS011;67933;51.060;3.638;2023-02-28T04:16:27;9.45;;;5.55;;
78612;SDS011;67933;51.060;3.638;2023-02-28T04:18:53;9.77;;;5.82;;
78612;SDS011;67933;51.060;3.638;2023-02-28T04:21:18;10.55;;;5.75;;
78612;SDS011;67933;51.060;3.638;2023-02-28T04:23:47;8.32;;;5.47;;
78612;SDS011;67933;51.060;3.638;2023-02-28T04:26:12;7.88;;;5.13;;
78612;SDS011;67933;51.060;3.638;2023-02-28T04:28:37;8.55;;;6.07;;
78612;SDS011;67933;51.060;3.638;2023-02-28T04:31:03;8.80;;;5.82;;
78612;SDS011;67933;51.060;3.638;2023-02-28T04:33:30;9.50;;;5.25;;
78612;SDS011;67933;51.060;3.638;2023-02-28T04:36:01;6.35;;;4.65;;
78612;SDS011;67933;51.060;3.638;2023-02-28T04:38:29;7.50;;;5.20;;
78612;SDS011;67933;51.060;3.638;2023-02-28T04:40:57;8.18;;;5.93;;
78612;SDS011;67933;51.060;3.638;2023-02-28T04:43:23;8.88;;;5.60;;
78612;SDS011;67933;51.060;3.638;2023-02-28T04:45:49;9.35;;;5.82;;
78612;SDS011;67933;51.060;3.638;2023-02-28T04:48:14;7.40;;;5.25;;
78612;SDS011;67933;51.060;3.638;2023-02-28T04:50:39;5.68;;;4.97;;
78612;SDS011;67933;51.060;3.638;2023-02-28T04:53:05;10.05;;;5.50;;
78612;SDS011;67933;51.060;3.638;2023-02-28T04:55:32;6.72;;;4.88;;
78612;SDS011;67933;51.060;3.638;2023-02-28T04:57:57;9.05;;;5.18;;
78612;SDS011;67933;51.060;3.638;2023-02-28T05:00:22;6.45;;;4.53;;
78612;SDS011;67933;51.060;3.638;2023-02-28T05:02:48;11.00;;;5.20;;
78612;SDS011;67933;51.060;3.638;2023-02-28T05:05:13;6.50;;;4.95;;
78612;SDS011;67933;51.060;3.638;2023-02-28T05:07:43;9.23;;;5.22;;
78612;SDS011;67933;51.060;3.638;2023-02-28T05:10:09;8.30;;;4.68;;
78612;SDS011;67933;51.060;3.638;2023-02-28T05:12:36;9.35;;;5.32;;
78612;SDS011;67933;51.060;3.638;2023-02-28T05:15:01;7.75;;;4.88;;
78612;SDS011;67933;51.060;3.638;2023-02-28T05:17:27;8.43;;;4.78;;
78612;SDS011;67933;51.060;3.638;2023-02-28T05:19:53;9.73;;;5.25;;
78612;SDS011;67933;51.060;3.638;2023-02-28T05:22:18;9.77;;;5.15;;
78612;SDS011;67933;51.060;3.638;2023-02-28T05:24:43;6.50;;;4.78;;
78612;SDS011;67933;51.060;3.638;2023-02-28T05:27:09;7.95;;;4.82;;
78612;SDS011;67933;51.060;3.638;2023-02-28T05:29:35;6.57;;;4.72;;
78612;SDS011;67933;51.060;3.638;2023-02-28T05:32:06;8.48;;;5.07;;
78612;SDS011;67933;51.060;3.638;2023-02-28T05:34:39;8.95;;;5.13;;
78612;SDS011;67933;51.060;3.638;2023-02-28T05:37:05;9.55;;;5.63;;
78612;SDS011;67933;51.060;3.638;2023-02-28T05:39:35;6.72;;;5.05;;
78612;SDS011;67933;51.060;3.638;2023-02-28T05:42:01;6.60;;;4.88;;
78612;SDS011;67933;51.060;3.638;2023-02-28T05:44:26;7.88;;;5.53;;
78612;SDS011;67933;51.060;3.638;2023-02-28T05:46:52;4.60;;;3.85;;
78612;SDS011;67933;51.060;3.638;2023-02-28T05:49:17;10.32;;;5.05;;
78612;SDS011;67933;51.060;3.638;2023-02-28T05:51:42;7.97;;;5.00;;
78612;SDS011;67933;51.060;3.638;2023-02-28T05:54:08;10.75;;;5.30;;
78612;SDS011;67933;51.060;3.638;2023-02-28T05:56:35;9.45;;;5.10;;
78612;SDS011;67933;51.060;3.638;2023-02-28T05:59:00;9.60;;;5.93;;
78612;SDS011;67933;51.060;3.638;2023-02-28T06:01:36;9.18;;;5.22;;
78612;SDS011;67933;51.060;3.638;2023-02-28T06:04:04;9.93;;;5.13;;
78612;SDS011;67933;51.060;3.638;2023-02-28T06:06:32;7.80;;;5.18;;
78612;SDS011;67933;51.060;3.638;2023-02-28T06:08:59;10.90;;;5.05;;
78612;SDS011;67933;51.060;3.638;2023-02-28T06:11:25;9.05;;;5.47;;
78612;SDS011;67933;51.060;3.638;2023-02-28T06:13:58;8.10;;;5.10;;
78612;SDS011;67933;51.060;3.638;2023-02-28T06:16:26;10.27;;;5.38;;
78612;SDS011;67933;51.060;3.638;2023-02-28T06:18:52;8.10;;;5.63;;
78612;SDS011;67933;51.060;3.638;2023-02-28T06:21:21;7.82;;;5.15;;
78612;SDS011;67933;51.060;3.638;2023-02-28T06:23:47;10.13;;;5.32;;
78612;SDS011;67933;51.060;3.638;2023-02-28T06:26:12;7.65;;;5.22;;
78612;SDS011;67933;51.060;3.638;2023-02-28T06:28:38;9.07;;;5.20;;
78612;SDS011;67933;51.060;3.638;2023-02-28T06:31:10;9.18;;;5.32;;
78612;SDS011;67933;51.060;3.638;2023-02-28T06:33:37;11.55;;;5.65;;
78612;SDS011;67933;51.060;3.638;2023-02-28T06:36:04;9.85;;;5.95;;
78612;SDS011;67933;51.060;3.638;2023-02-28T06:38:30;7.30;;;5.07;;
78612;SDS011;67933;51.060;3.638;2023-02-28T06:40:57;10.68;;;5.40;;
78612;SDS011;67933;51.060;3.638;2023-02-28T06:43:24;8.75;;;5.47;;
78612;SDS011;67933;51.060;3.638;2023-02-28T06:45:50;11.13;;;6.65;;
78612;SDS011;67933;51.060;3.638;2023-02-28T06:48:18;10.25;;;5.28;;
78612;SDS011;67933;51.060;3.638;2023-02-28T06:50:44;8.63;;;5.65;;
78612;SDS011;67933;51.060;3.638;2023-02-28T06:53:09;8.05;;;5.80;;
78612;SDS011;67933;51.060;3.638;2023-02-28T06:55:37;8.98;;;6.05;;
78612;SDS011;67933;51.060;3.638;2023-02-28T06:58:02;9.50;;;6.63;;
78612;SDS011;67933;51.060;3.638;2023-02-28T07:00:28;9.80;;;6.90;;
78612;SDS011;67933;51.060;3.638;2023-02-28T07:02:53;7.50;;;5.93;;
78612;SDS011;67933;51.060;3.638;2023-02-28T07:05:20;8.23;;;5.78;;
78612;SDS011;67933;51.060;3.638;2023-02-28T07:07:45;13.38;;;6.25;;
78612;SDS011;67933;51.060;3.638;2023-02-28T07:10:12;10.55;;;5.60;;
78612;SDS011;67933;51.060;3.638;2023-02-28T07:12:39;8.20;;;5.85;;
78612;SDS011;67933;51.060;3.638;2023-02-28T07:15:04;13.20;;;6.35;;
78612;SDS011;67933;51.060;3.638;2023-02-28T07:17:30;10.40;;;5.68;;
78612;SDS011;67933;51.060;3.638;2023-02-28T07:19:56;10.68;;;6.63;;
78612;SDS011;67933;51.060;3.638;2023-02-28T07:22:21;11.55;;;7.50;;
78612;SDS011;67933;51.060;3.638;2023-02-28T07:24:47;12.52;;;6.90;;
78612;SDS011;67933;51.060;3.638;2023-02-28T07:27:12;9.73;;;6.10;;
78612;SDS011;67933;51.060;3.638;2023-02-28T07:29:48;11.40;;;6.50;;
78612;SDS011;67933;51.060;3.638;2023-02-28T07:32:14;11.45;;;7.18;;
78612;SDS011;67933;51.060;3.638;2023-02-28T07:34:39;10.55;;;6.20;;
78612;SDS011;67933;51.060;3.638;2023-02-28T07:37:06;9.57;;;5.60;;
78612;SDS011;67933;51.060;3.638;2023-02-28T07:39:31;7.50;;;4.50;;
78612;SDS011;67933;51.060;3.638;2023-02-28T07:41:57;6.90;;;3.83;;
78612;SDS011;67933;51.060;3.638;2023-02-28T07:44:22;3.85;;;3.10;;
78612;SDS011;67933;51.060;3.638;2023-02-28T07:46:47;4.22;;;3.38;;
78612;SDS011;67933;51.060;3.638;2023-02-28T07:49:13;8.52;;;4.20;;
78612;SDS011;67933;51.060;3.638;2023-02-28T07:51:38;6.90;;;3.38;;
78612;SDS011;67933;51.060;3.638;2023-02-28T07:54:04;6.53;;;3.38;;
78612;SDS011;67933;51.060;3.638;2023-02-28T07:56:29;7.78;;;3.38;;
78612;SDS011;67933;51.060;3.638;2023-02-28T07:58:55;4.10;;;3.03;;
78612;SDS011;67933;51.060;3.638;2023-02-28T08:01:21;5.35;;;3.05;;
78612;SDS011;67933;51.060;3.638;2023-02-28T08:03:46;6.50;;;3.15;;
78612;SDS011;67933;51.060;3.638;2023-02-28T08:06:16;6.68;;;3.60;;
78612;SDS011;67933;51.060;3.638;2023-02-28T08:08:43;5.55;;;3.47;;
78612;SDS011;67933;51.060;3.638;2023-02-28T08:11:09;5.38;;;3.58;;
78612;SDS011;67933;51.060;3.638;2023-02-28T08:13:35;4.95;;;2.80;;
78612;SDS011;67933;51.060;3.638;2023-02-28T08:16:01;5.50;;;2.72;;
78612;SDS011;67933;51.060;3.638;2023-02-28T08:18:27;4.53;;;2.50;;
78612;SDS011;67933;51.060;3.638;2023-02-28T08:20:53;5.82;;;2.95;;
78612;SDS011;67933;51.060;3.638;2023-02-28T08:23:18;5.18;;;2.97;;
78612;SDS011;67933;51.060;3.638;2023-02-28T08:25:43;6.40;;;3.40;;
78612;SDS011;67933;51.060;3.638;2023-02-28T08:28:09;4.85;;;2.70;;
78612;SDS011;67933;51.060;3.638;2023-02-28T08:30:34;3.38;;;2.60;;
78612;SDS011;67933;51.060;3.638;2023-02-28T08:33:00;5.47;;;3.60;;
78612;SDS011;67933;51.060;3.638;2023-02-28T08:35:26;4.78;;;3.35;;
78612;SDS011;67933;51.060;3.638;2023-02-28T08:37:52;4.13;;;3.30;;
78612;SDS011;67933;51.060;3.638;2023-02-28T08:40:17;4.45;;;3.22;;
78612;SDS011;67933;51.060;3.638;2023-02-28T08:45:11;5.15;;;2.42;;
78612;SDS011;67933;51.060;3.638;2023-02-28T08:47:37;6.85;;;2.50;;
78612;SDS011;67933;51.060;3.638;2023-02-28T08:50:03;2.78;;;1.75;;
78612;SDS011;67933;51.060;3.638;2023-02-28T08:52:29;2.70;;;1.90;;
78612;SDS011;67933;51.060;3.638;2023-02-28T08:54:54;3.15;;;1.90;;
78612;SDS011;67933;51.060;3.638;2023-02-28T08:57:20;7.25;;;2.10;;
78612;SDS011;67933;51.060;3.638;2023-02-28T08:59:45;2.88;;;1.90;;
78612;SDS011;67933;51.060;3.638;2023-02-28T09:02:14;3.22;;;2.10;;
78612;SDS011;67933;51.060;3.638;2023-02-28T09:04:40;2.63;;;1.90;;
78612;SDS011;67933;51.060;3.638;2023-02-28T09:07:06;3.60;;;2.42;;
78612;SDS011;67933;51.060;3.638;2023-02-28T09:09:32;2.83;;;2.20;;
78612;SDS011;67933;51.060;3.638;2023-02-28T09:11:57;4.30;;;2.60;;
78612;SDS011;67933;51.060;3.638;2023-02-28T09:14:23;3.00;;;2.60;;
78612;SDS011;67933;51.060;3.638;2023-02-28T09:16:48;3.20;;;2.53;;
78612;SDS011;67933;51.060;3.638;2023-02-28T09:19:14;5.07;;;3.28;;
78612;SDS011;67933;51.060;3.638;2023-02-28T09:21:39;5.13;;;2.78;;
78612;SDS011;67933;51.060;3.638;2023-02-28T09:24:05;8.68;;;3.20;;
78612;SDS011;67933;51.060;3.638;2023-02-28T09:26:31;3.67;;;2.83;;
78612;SDS011;67933;51.060;3.638;2023-02-28T09:28:57;4.43;;;3.40;;
78612;SDS011;67933;51.060;3.638;2023-02-28T09:31:25;4.82;;;3.10;;
78612;SDS011;67933;51.060;3.638;2023-02-28T09:33:54;3.92;;;3.13;;
78612;SDS011;67933;51.060;3.638;2023-02-28T09:36:22;6.10;;;3.17;;
78612;SDS011;67933;51.060;3.638;2023-02-28T09:38:49;3.80;;;2.90;;
78612;SDS011;67933;51.060;3.638;2023-02-28T09:41:20;5.70;;;3.25;;
78612;SDS011;67933;51.060;3.638;2023-02-28T09:43:50;6.00;;;3.42;;
78612;SDS011;67933;51.060;3.638;2023-02-28T09:46:33;4.00;;;3.17;;
78612;SDS011;67933;51.060;3.638;2023-02-28T09:49:05;4.43;;;2.42;;
78612;SDS011;67933;51.060;3.638;2023-02-28T09:54:13;5.97;;;3.10;;
78612;SDS011;67933;51.060;3.638;2023-02-28T09:56:44;7.15;;;3.30;;
78612;SDS011;67933;51.060;3.638;2023-02-28T09:59:56;3.72;;;2.55;;
78612;SDS011;67933;51.060;3.638;2023-02-28T10:10:20;3.53;;;2.53;;
78612;SDS011;67933;51.060;3.638;2023-02-28T10:12:50;3.67;;;2.13;;
78612;SDS011;67933;51.060;3.638;2023-02-28T10:15:18;3.58;;;2.40;;
78612;SDS011;67933;51.060;3.638;2023-02-28T10:17:48;3.33;;;2.42;;
78612;SDS011;67933;51.060;3.638;2023-02-28T10:20:20;4.13;;;2.75;;
78612;SDS011;67933;51.060;3.638;2023-02-28T10:22:53;3.97;;;2.72;;
78612;SDS011;67933;51.060;3.638;2023-02-28T10:25:33;7.28;;;2.65;;
78612;SDS011;67933;51.060;3.638;2023-02-28T10:28:01;5.57;;;2.95;;
78612;SDS011;67933;51.060;3.638;2023-02-28T10:30:34;5.47;;;2.97;;
78612;SDS011;67933;51.060;3.638;2023-02-28T10:33:02;3.88;;;2.28;;
78612;SDS011;67933;51.060;3.638;2023-02-28T10:35:28;3.67;;;2.33;;
78612;SDS011;67933;51.060;3.638;2023-02-28T10:37:57;4.90;;;1.90;;
78612;SDS011;67933;51.060;3.638;2023-02-28T10:45:23;3.17;;;2.13;;
78612;SDS011;67933;51.060;3.638;2023-02-28T10:55:35;2.13;;;1.70;;
78612;SDS011;67933;51.060;3.638;2023-02-28T10:58:01;3.78;;;2.78;;
78612;SDS011;67933;51.060;3.638;2023-02-28T11:00:31;2.53;;;1.70;;
78612;SDS011;67933;51.060;3.638;2023-02-28T11:02:58;7.47;;;1.90;;
78612;SDS011;67933;51.060;3.638;2023-02-28T11:05:25;5.45;;;2.15;;
78612;SDS011;67933;51.060;3.638;2023-02-28T11:07:54;2.05;;;1.73;;
78612;SDS011;67933;51.060;3.638;2023-02-28T11:10:21;3.42;;;2.08;;
78612;SDS011;67933;51.060;3.638;2023-02-28T11:12:54;3.95;;;2.00;;
78612;SDS011;67933;51.060;3.638;2023-02-28T11:15:23;4.05;;;2.38;;
78612;SDS011;67933;51.060;3.638;2023-02-28T11:17:57;3.25;;;2.17;;
78612;SDS011;67933;51.060;3.638;2023-02-28T11:20:42;4.07;;;1.92;;
78612;SDS011;67933;51.060;3.638;2023-02-28T11:23:14;1.92;;;1.73;;
78612;SDS011;67933;51.060;3.638;2023-02-28T11:25:45;2.38;;;1.90;;
78612;SDS011;67933;51.060;3.638;2023-02-28T11:28:39;2.15;;;1.90;;
78612;SDS011;67933;51.060;3.638;2023-02-28T11:33:41;3.70;;;2.00;;
78612;SDS011;67933;51.060;3.638;2023-02-28T11:36:14;2.50;;;2.30;;
78612;SDS011;67933;51.060;3.638;2023-02-28T11:38:43;2.80;;;2.35;;
78612;SDS011;67933;51.060;3.638;2023-02-28T11:49:21;2.72;;;2.03;;
78612;SDS011;67933;51.060;3.638;2023-02-28T11:54:22;4.10;;;1.83;;
78612;SDS011;67933;51.060;3.638;2023-02-28T11:56:53;2.20;;;1.90;;
78612;SDS011;67933;51.060;3.638;2023-02-28T12:02:05;2.88;;;2.17;;
78612;SDS011;67933;51.060;3.638;2023-02-28T12:07:59;3.03;;;2.08;;
78612;SDS011;67933;51.060;3.638;2023-02-28T12:21:40;2.78;;;2.13;;
78612;SDS011;67933;51.060;3.638;2023-02-28T12:24:49;2.35;;;2.00;;
78612;SDS011;67933;51.060;3.638;2023-02-28T12:27:11;2.30;;;2.10;;
78612;SDS011;67933;51.060;3.638;2023-02-28T12:29:43;4.10;;;2.30;;
78612;SDS011;67933;51.060;3.638;2023-02-28T12:32:20;2.67;;;1.77;;
78612;SDS011;67933;51.060;3.638;2023-02-28T12:34:52;3.20;;;1.83;;
78612;SDS011;67933;51.060;3.638;2023-02-28T12:37:25;4.20;;;2.20;;
78612;SDS011;67933;51.060;3.638;2023-02-28T12:40:00;2.47;;;1.80;;
78612;SDS011;67933;51.060;3.638;2023-02-28T12:44:59;2.28;;;2.00;;
78612;SDS011;67933;51.060;3.638;2023-02-28T12:47:30;1.70;;;1.60;;
78612;SDS011;67933;51.060;3.638;2023-02-28T12:49:59;5.68;;;1.92;;
78612;SDS011;67933;51.060;3.638;2023-02-28T12:55:12;1.70;;;1.58;;
78612;SDS011;67933;51.060;3.638;2023-02-28T13:00:33;3.92;;;1.77;;
78612;SDS011;67933;51.060;3.638;2023-02-28T13:22:41;2.20;;;2.00;;
78612;SDS011;67933;51.060;3.638;2023-02-28T13:27:46;2.72;;;2.10;;
78612;SDS011;67933;51.060;3.638;2023-02-28T13:33:30;2.28;;;1.70;;
78612;SDS011;67933;51.060;3.638;2023-02-28T13:38:44;2.45;;;1.90;;
78612;SDS011;67933;51.060;3.638;2023-02-28T13:46:32;2.60;;;1.90;;
78612;SDS011;67933;51.060;3.638;2023-02-28T13:51:48;1.85;;;1.67;;
78612;SDS011;67933;51.060;3.638;2023-02-28T13:54:27;2.15;;;1.95;;
78612;SDS011;67933;51.060;3.638;2023-02-28T13:57:07;4.45;;;1.92;;
78612;SDS011;67933;51.060;3.638;2023-02-28T13:59:47;1.80;;;1.70;;
78612;SDS011;67933;51.060;3.638;2023-02-28T14:07:45;2.03;;;1.80;;
78612;SDS011;67933;51.060;3.638;2023-02-28T14:10:27;2.72;;;1.88;;
78612;SDS011;67933;51.060;3.638;2023-02-28T14:16:09;2.00;;;1.80;;
78612;SDS011;67933;51.060;3.638;2023-02-28T14:18:32;2.10;;;1.90;;
78612;SDS011;67933;51.060;3.638;2023-02-28T14:29:43;4.05;;;2.17;;
78612;SDS011;67933;51.060;3.638;2023-02-28T14:32:38;1.90;;;1.70;;
78612;SDS011;67933;51.060;3.638;2023-02-28T14:37:45;3.33;;;2.22;;
78612;SDS011;67933;51.060;3.638;2023-02-28T14:40:14;3.85;;;1.92;;
78612;SDS011;67933;51.060;3.638;2023-02-28T14:43:03;2.92;;;2.40;;
78612;SDS011;67933;51.060;3.638;2023-02-28T14:45:32;2.17;;;1.98;;
78612;SDS011;67933;51.060;3.638;2023-02-28T14:47:59;4.57;;;2.78;;
78612;SDS011;67933;51.060;3.638;2023-02-28T14:50:31;3.25;;;1.92;;
78612;SDS011;67933;51.060;3.638;2023-02-28T14:52:59;2.90;;;2.15;;
78612;SDS011;67933;51.060;3.638;2023-02-28T14:55:35;2.20;;;1.85;;
78612;SDS011;67933;51.060;3.638;2023-02-28T14:58:02;2.40;;;2.20;;
78612;SDS011;67933;51.060;3.638;2023-02-28T15:00:46;2.20;;;2.00;;
78612;SDS011;67933;51.060;3.638;2023-02-28T15:03:32;3.20;;;1.85;;
78612;SDS011;67933;51.060;3.638;2023-02-28T15:06:03;3.10;;;2.10;;
78612;SDS011;67933;51.060;3.638;2023-02-28T15:08:31;3.58;;;2.53;;
78612;SDS011;67933;51.060;3.638;2023-02-28T15:13:39;2.97;;;2.25;;
78612;SDS011;67933;51.060;3.638;2023-02-28T15:16:25;2.50;;;1.60;;
78612;SDS011;67933;51.060;3.638;2023-02-28T15:19:00;2.83;;;2.50;;
78612;SDS011;67933;51.060;3.638;2023-02-28T15:21:28;4.18;;;2.42;;
78612;SDS011;67933;51.060;3.638;2023-02-28T15:24:00;3.00;;;2.00;;
78612;SDS011;67933;51.060;3.638;2023-02-28T15:26:31;2.90;;;1.83;;
78612;SDS011;67933;51.060;3.638;2023-02-28T15:29:00;3.40;;;2.20;;
78612;SDS011;67933;51.060;3.638;2023-02-28T15:31:34;2.47;;;2.22;;
78612;SDS011;67933;51.060;3.638;2023-02-28T15:34:04;2.47;;;2.03;;
78612;SDS011;67933;51.060;3.638;2023-02-28T15:36:31;2.50;;;2.28;;
78612;SDS011;67933;51.060;3.638;2023-02-28T15:38:59;3.92;;;2.70;;
78612;SDS011;67933;51.060;3.638;2023-02-28T15:41:30;2.88;;;2.35;;
78612;SDS011;67933;51.060;3.638;2023-02-28T15:46:42;4.35;;;2.28;;
78612;SDS011;67933;51.060;3.638;2023-02-28T15:49:17;2.42;;;1.90;;
78612;SDS011;67933;51.060;3.638;2023-02-28T15:51:45;3.50;;;1.88;;
78612;SDS011;67933;51.060;3.638;2023-02-28T15:54:12;4.38;;;2.42;;
78612;SDS011;67933;51.060;3.638;2023-02-28T15:56:44;3.05;;;2.15;;
78612;SDS011;67933;51.060;3.638;2023-02-28T15:59:16;2.95;;;2.40;;
78612;SDS011;67933;51.060;3.638;2023-02-28T16:01:44;2.85;;;2.03;;
78612;SDS011;67933;51.060;3.638;2023-02-28T16:04:14;2.60;;;2.40;;
78612;SDS011;67933;51.060;3.638;2023-02-28T16:06:44;2.42;;;1.92;;
78612;SDS011;67933;51.060;3.638;2023-02-28T16:09:12;3.08;;;2.33;;
78612;SDS011;67933;51.060;3.638;2023-02-28T16:11:47;3.28;;;2.33;;
78612;SDS011;67933;51.060;3.638;2023-02-28T16:14:15;2.65;;;2.20;;
78612;SDS011;67933;51.060;3.638;2023-02-28T16:16:47;4.57;;;2.30;;
78612;SDS011;67933;51.060;3.638;2023-02-28T16:19:14;2.75;;;2.30;;
78612;SDS011;67933;51.060;3.638;2023-02-28T16:21:39;3.10;;;2.00;;
78612;SDS011;67933;51.060;3.638;2023-02-28T16:24:05;2.67;;;2.28;;
78612;SDS011;67933;51.060;3.638;2023-02-28T16:26:31;4.93;;;3.40;;
78612;SDS011;67933;51.060;3.638;2023-02-28T16:28:59;3.20;;;2.38;;
78612;SDS011;67933;51.060;3.638;2023-02-28T16:31:25;3.35;;;2.30;;
78612;SDS011;67933;51.060;3.638;2023-02-28T16:33:50;4.03;;;2.10;;
78612;SDS011;67933;51.060;3.638;2023-02-28T16:36:17;3.63;;;2.80;;
78612;SDS011;67933;51.060;3.638;2023-02-28T16:38:45;4.68;;;2.33;;
78612;SDS011;67933;51.060;3.638;2023-02-28T16:41:17;3.63;;;2.67;;
78612;SDS011;67933;51.060;3.638;2023-02-28T16:43:47;3.35;;;2.30;;
78612;SDS011;67933;51.060;3.638;2023-02-28T16:46:15;3.22;;;2.70;;
78612;SDS011;67933;51.060;3.638;2023-02-28T16:48:41;2.92;;;2.63;;
78612;SDS011;67933;51.060;3.638;2023-02-28T16:51:14;3.35;;;2.75;;
78612;SDS011;67933;51.060;3.638;2023-02-28T16:53:41;3.05;;;2.28;;
78612;SDS011;67933;51.060;3.638;2023-02-28T16:56:11;5.07;;;2.50;;
78612;SDS011;67933;51.060;3.638;2023-02-28T16:58:43;4.22;;;2.70;;
78612;SDS011;67933;51.060;3.638;2023-02-28T17:01:09;3.03;;;2.72;;
78612;SDS011;67933;51.060;3.638;2023-02-28T17:03:35;3.13;;;2.78;;
78612;SDS011;67933;51.060;3.638;2023-02-28T17:06:01;3.17;;;2.60;;
78612;SDS011;67933;51.060;3.638;2023-02-28T17:08:29;4.60;;;2.55;;
78612;SDS011;67933;51.060;3.638;2023-02-28T17:10:57;2.95;;;2.50;;
78612;SDS011;67933;51.060;3.638;2023-02-28T17:13:23;5.10;;;3.17;;
78612;SDS011;67933;51.060;3.638;2023-02-28T17:15:49;3.78;;;3.00;;
78612;SDS011;67933;51.060;3.638;2023-02-28T17:18:15;3.88;;;3.00;;
78612;SDS011;67933;51.060;3.638;2023-02-28T17:20:44;4.05;;;2.83;;
78612;SDS011;67933;51.060;3.638;2023-02-28T17:23:10;3.40;;;2.55;;
78612;SDS011;67933;51.060;3.638;2023-02-28T17:25:36;5.05;;;3.13;;
78612;SDS011;67933;51.060;3.638;2023-02-28T17:28:01;4.93;;;3.03;;
78612;SDS011;67933;51.060;3.638;2023-02-28T17:30:27;5.60;;;2.70;;
78612;SDS011;67933;51.060;3.638;2023-02-28T17:32:54;3.28;;;2.50;;
78612;SDS011;67933;51.060;3.638;2023-02-28T17:37:47;6.82;;;3.10;;
78612;SDS011;67933;51.060;3.638;2023-02-28T17:40:17;5.15;;;3.40;;
78612;SDS011;67933;51.060;3.638;2023-02-28T17:42:45;4.88;;;3.00;;
78612;SDS011;67933;51.060;3.638;2023-02-28T17:45:11;5.30;;;3.08;;
78612;SDS011;67933;51.060;3.638;2023-02-28T17:47:38;3.75;;;2.50;;
78612;SDS011;67933;51.060;3.638;2023-02-28T17:50:04;5.20;;;2.92;;
78612;SDS011;67933;51.060;3.638;2023-02-28T17:52:30;4.78;;;3.88;;